createdAt,value
2019-01-29T00:02:18.457Z,98397.13
2019-01-29T00:05:22.001Z,98402.97
2019-01-29T00:08:25.472Z,98403.62
2019-01-29T00:11:28.965Z,98407.13
2019-01-29T00:14:32.383Z,98407.94
2019-01-29T00:17:35.810Z,98414.80
2019-01-29T00:20:39.318Z,98411.94
2019-01-29T00:23:42.759Z,98420.77
2019-01-29T00:26:46.285Z,98425.24
2019-01-29T00:29:50.863Z,98427.09
2019-01-29T00:32:54.554Z,98436.09
2019-01-29T00:35:58.043Z,98442.54
2019-01-29T00:39:01.715Z,98442.05
2019-01-29T00:42:06.241Z,98447.05
2019-01-29T00:45:09.839Z,98460.04
2019-01-29T00:48:13.401Z,98476.50
2019-01-29T00:51:17.945Z,98480.97
2019-01-29T00:54:23.597Z,98488.96
2019-01-29T00:57:27.357Z,98484.32
2019-01-29T01:00:30.771Z,98491.30
2019-01-29T01:03:34.284Z,98494.61
2019-01-29T01:06:37.823Z,98506.42
2019-01-29T01:09:41.423Z,98518.91
2019-01-29T01:12:46.025Z,98523.88
2019-01-29T01:15:49.451Z,98529.56
2019-01-29T01:18:52.944Z,98530.53
2019-01-29T01:22:00.000Z,98537.19
2019-01-29T01:25:04.528Z,98545.17
2019-01-29T01:28:08.181Z,98551.83
2019-01-29T01:31:16.009Z,98557.14
2019-01-29T01:34:20.451Z,98562.47
2019-01-29T01:37:24.091Z,98555.49
2019-01-29T01:40:30.472Z,98569.80
2019-01-29T01:43:34.113Z,98576.13
2019-01-29T01:46:37.560Z,98578.80
2019-01-29T01:49:41.155Z,98579.77
2019-01-29T01:52:44.757Z,98586.42
2019-01-29T01:55:48.472Z,98581.78
2019-01-29T01:58:54.749Z,98594.56
2019-01-29T02:01:58.494Z,98607.39
2019-01-29T02:05:02.090Z,98612.22
2019-01-29T02:08:05.758Z,98611.22
2019-01-29T02:11:09.266Z,98606.90
2019-01-29T02:14:12.762Z,98622.02
2019-01-29T02:17:20.354Z,98619.20
2019-01-29T02:20:26.282Z,98626.34
2019-01-29T02:23:29.839Z,98630.85
2019-01-29T02:26:33.306Z,98640.66
2019-01-29T02:29:36.715Z,98641.66
2019-01-29T02:32:40.358Z,98647.98
2019-01-29T02:35:43.812Z,98643.63
2019-01-29T02:38:47.304Z,98653.30
2019-01-29T02:41:50.822Z,98650.80
2019-01-29T02:44:55.330Z,98656.61
2019-01-29T02:47:58.831Z,98658.95
2019-01-29T02:51:02.343Z,98669.59
2019-01-29T02:54:05.806Z,98672.25
2019-01-29T02:57:09.347Z,98688.06
2019-01-29T03:00:23.384Z,98692.70
2019-01-29T03:03:27.124Z,98700.52
2019-01-29T03:06:30.707Z,98701.01
2019-01-29T03:09:34.207Z,98714.83
2019-01-29T03:12:37.698Z,98713.50
2019-01-29T03:15:42.252Z,98728.14
2019-01-29T03:18:45.729Z,98731.77
2019-01-29T03:21:50.260Z,98744.91
2019-01-29T03:24:54.670Z,98748.09
2019-01-29T03:27:58.277Z,98754.91
2019-01-29T03:31:01.723Z,98758.37
2019-01-29T03:34:05.276Z,98757.05
2019-01-29T03:37:08.786Z,98764.06
2019-01-29T03:40:14.439Z,98771.20
2019-01-29T03:43:17.929Z,98778.34
2019-01-29T03:46:21.480Z,98790.83
2019-01-29T03:49:25.033Z,98792.97
2019-01-29T03:52:28.531Z,98791.64
2019-01-29T03:55:32.085Z,98801.65
2019-01-29T03:58:37.596Z,98804.31
2019-01-29T04:01:41.082Z,98805.97
2019-01-29T04:04:44.622Z,98810.11
2019-01-29T04:07:48.085Z,98818.94
2019-01-29T04:10:51.503Z,98830.92
2019-01-29T04:13:55.174Z,98828.41
2019-01-29T04:16:58.598Z,98840.39
2019-01-29T04:20:05.277Z,98842.20
2019-01-29T04:23:08.888Z,98844.86
2019-01-29T04:26:12.410Z,98858.17
2019-01-29T04:29:15.877Z,98863.49
2019-01-29T04:32:19.434Z,98873.81
2019-01-29T04:35:22.892Z,98865.83
2019-01-29T04:38:26.365Z,98876.95
2019-01-29T04:41:29.856Z,98877.80
2019-01-29T04:44:33.380Z,98895.58
2019-01-29T04:47:36.878Z,98889.77
2019-01-29T04:50:40.510Z,98892.59
2019-01-29T04:53:44.033Z,98895.73
2019-01-29T04:56:47.590Z,98897.41
2019-01-29T04:59:51.084Z,98900.39
2019-01-29T05:02:54.502Z,98902.91
2019-01-29T05:05:58.087Z,98902.39
2019-01-29T05:09:01.611Z,98910.04
2019-01-29T05:12:05.115Z,98913.39
2019-01-29T05:15:10.557Z,98914.72
2019-01-29T05:18:14.149Z,98915.69
2019-01-29T05:21:19.771Z,98926.34
2019-01-29T05:24:24.933Z,98923.67
2019-01-29T05:27:28.531Z,98932.50
2019-01-29T05:30:32.030Z,98930.33
2019-01-29T05:33:35.555Z,98934.32
2019-01-29T05:36:39.022Z,98936.98
2019-01-29T05:39:43.009Z,98937.34
2019-01-29T05:42:47.478Z,98942.30
2019-01-29T05:45:50.978Z,98943.64
2019-01-29T05:48:54.462Z,98949.32
2019-01-29T05:51:59.008Z,98957.30
2019-01-29T05:55:02.495Z,98955.97
2019-01-29T05:58:06.055Z,98965.28
2019-01-29T06:01:10.531Z,98964.92
2019-01-29T06:04:14.025Z,98973.27
2019-01-29T06:07:17.794Z,98974.23
2019-01-29T06:10:21.249Z,98980.89
2019-01-29T06:13:24.866Z,98989.23
2019-01-29T06:16:28.450Z,98982.89
2019-01-29T06:19:32.138Z,98991.53
2019-01-29T06:22:35.654Z,98998.03
2019-01-29T06:25:39.432Z,99009.20
2019-01-29T06:28:42.846Z,99015.84
2019-01-29T06:31:46.246Z,99012.34
2019-01-29T06:34:49.844Z,99019.33
2019-01-29T06:37:53.339Z,99028.16
2019-01-29T06:40:57.889Z,99029.00
2019-01-29T06:44:01.425Z,99041.46
2019-01-29T06:47:04.890Z,99039.80
2019-01-29T06:50:11.019Z,99048.11
2019-01-29T06:53:14.535Z,99058.28
2019-01-29T06:56:18.158Z,99059.09
2019-01-29T06:59:21.787Z,99063.09
2019-01-29T07:02:25.240Z,99065.75
2019-01-29T07:05:28.770Z,99067.08
2019-01-29T07:08:32.252Z,99075.21
2019-01-29T07:11:35.766Z,99078.09
2019-01-29T07:14:39.258Z,99077.58
2019-01-29T07:17:46.843Z,99085.08
2019-01-29T07:20:50.356Z,99085.56
2019-01-29T07:23:53.854Z,99092.21
2019-01-29T07:26:59.387Z,99099.38
2019-01-29T07:30:02.894Z,99104.19
2019-01-29T07:33:06.342Z,99099.02
2019-01-29T07:36:10.949Z,99108.33
2019-01-29T07:39:14.449Z,99106.03
2019-01-29T07:42:17.932Z,99116.86
2019-01-29T07:45:21.434Z,99109.36
2019-01-29T07:48:24.925Z,99112.02
2019-01-29T07:51:30.489Z,99113.87
2019-01-29T07:54:34.027Z,99114.69
2019-01-29T07:57:37.480Z,99127.99
2019-01-29T08:00:42.286Z,99132.50
2019-01-29T08:03:45.943Z,99132.34
2019-01-29T08:06:50.449Z,99136.97
2019-01-29T08:09:54.118Z,99139.97
2019-01-29T08:12:57.656Z,99140.48
2019-01-29T08:16:01.228Z,99146.63
2019-01-29T08:19:04.998Z,99145.29
2019-01-29T08:22:08.552Z,99144.95
2019-01-29T08:25:12.393Z,99151.28
2019-01-29T08:28:15.974Z,99156.59
2019-01-29T08:31:19.470Z,99159.27
2019-01-29T08:34:22.968Z,99160.59
2019-01-29T08:37:27.889Z,99163.92
2019-01-29T08:40:33.291Z,99165.25
2019-01-29T08:43:36.792Z,99167.62
2019-01-29T08:46:40.363Z,99172.94
2019-01-29T08:49:43.948Z,99174.98
2019-01-29T08:52:47.452Z,99182.45
2019-01-29T08:55:51.014Z,99188.62
2019-01-29T08:58:54.454Z,99188.28
2019-01-29T09:01:57.979Z,99192.27
2019-01-29T09:05:01.592Z,99197.30
2019-01-29T09:08:05.305Z,99196.16
2019-01-29T09:11:10.357Z,99200.34
2019-01-29T09:14:13.820Z,99201.05
2019-01-29T09:17:17.323Z,99201.71
2019-01-29T09:20:20.999Z,99201.42
2019-01-29T09:23:24.700Z,99206.11
2019-01-29T09:26:28.236Z,99208.11
2019-01-29T09:29:31.814Z,99212.30
2019-01-29T09:32:35.429Z,99211.18
2019-01-29T09:35:38.935Z,99210.48
2019-01-29T09:38:43.463Z,99213.58
2019-01-29T09:41:47.993Z,99220.84
2019-01-29T09:44:51.492Z,99223.23
2019-01-29T09:47:56.014Z,99230.56
2019-01-29T09:50:59.537Z,99230.56
2019-01-29T09:54:03.018Z,99224.94
2019-01-29T09:57:06.525Z,99237.29
2019-01-29T10:00:18.158Z,99237.77
2019-01-29T10:03:21.697Z,99235.95
2019-01-29T10:06:25.424Z,99238.95
2019-01-29T10:09:29.989Z,99236.30
2019-01-29T10:12:33.447Z,99234.66
2019-01-29T10:15:37.991Z,99237.33
2019-01-29T10:18:41.481Z,99240.36
2019-01-29T10:21:44.973Z,99240.36
2019-01-29T10:24:48.475Z,99237.99
2019-01-29T10:27:52.008Z,99233.33
2019-01-29T10:30:56.507Z,99235.14
2019-01-29T10:34:04.316Z,99239.63
2019-01-29T10:37:07.804Z,99232.48
2019-01-29T10:40:13.647Z,99225.97
2019-01-29T10:43:17.265Z,99228.97
2019-01-29T10:46:20.749Z,99226.67
2019-01-29T10:49:24.277Z,99224.97
2019-01-29T10:52:27.748Z,99225.34
2019-01-29T10:55:31.272Z,99222.31
2019-01-29T10:58:34.833Z,99216.98
2019-01-29T11:01:38.277Z,99214.32
2019-01-29T11:04:41.790Z,99225.34
2019-01-29T11:07:46.297Z,99221.67
2019-01-29T11:10:49.780Z,99226.16
2019-01-29T11:13:54.332Z,99232.00
2019-01-29T11:16:57.862Z,99228.34
2019-01-29T11:20:01.325Z,99222.67
2019-01-29T11:23:04.876Z,99216.50
2019-01-29T11:26:08.326Z,99216.02
2019-01-29T11:29:11.844Z,99214.69
2019-01-29T11:32:16.352Z,99218.69
2019-01-29T11:35:19.791Z,99220.34
2019-01-29T11:38:24.386Z,99221.20
2019-01-29T11:41:27.871Z,99224.97
2019-01-29T11:44:32.555Z,99217.98
2019-01-29T11:47:36.137Z,99214.98
2019-01-29T11:50:39.602Z,99216.31
2019-01-29T11:53:43.113Z,99221.79
2019-01-29T11:56:46.612Z,99222.09
2019-01-29T11:59:50.146Z,99222.56
2019-01-29T12:02:53.626Z,99221.23
2019-01-29T12:05:57.127Z,99224.90
2019-01-29T12:09:00.593Z,99223.91
2019-01-29T12:12:05.245Z,99224.60
2019-01-29T12:15:10.273Z,99217.09
2019-01-29T12:18:13.783Z,99221.31
2019-01-29T12:21:17.276Z,99219.98
2019-01-29T12:24:20.775Z,99219.80
2019-01-29T12:27:24.270Z,99222.31
2019-01-29T12:30:28.840Z,99215.65
2019-01-29T12:33:32.317Z,99213.14
2019-01-29T12:36:36.862Z,99214.98
2019-01-29T12:39:40.342Z,99212.95
2019-01-29T12:42:43.841Z,99212.80
2019-01-29T12:45:48.321Z,99216.47
2019-01-29T12:48:51.868Z,99212.62
2019-01-29T12:52:01.976Z,99208.95
2019-01-29T12:55:06.233Z,99207.30
2019-01-29T12:58:10.775Z,99206.30
2019-01-29T13:01:14.271Z,99206.81
2019-01-29T13:04:17.770Z,99207.77
2019-01-29T13:07:22.287Z,99209.95
2019-01-29T13:10:26.805Z,99209.95
2019-01-29T13:13:30.326Z,99208.95
2019-01-29T13:16:33.838Z,99204.81
2019-01-29T13:19:38.351Z,99205.66
2019-01-29T13:22:41.846Z,99204.00
2019-01-29T13:25:47.403Z,99206.66
2019-01-29T13:28:51.972Z,99201.33
2019-01-29T13:31:56.432Z,99209.33
2019-01-29T13:34:59.951Z,99207.99
2019-01-29T13:38:03.457Z,99211.98
2019-01-29T13:41:06.935Z,99207.00
2019-01-29T13:44:10.442Z,99206.66
2019-01-29T13:47:13.955Z,99200.34
2019-01-29T13:50:20.603Z,99206.48
2019-01-29T13:53:24.231Z,99203.33
2019-01-29T13:56:27.717Z,99201.85
2019-01-29T13:59:31.220Z,99200.04
2019-01-29T14:02:34.717Z,99208.36
2019-01-29T14:05:38.262Z,99202.70
2019-01-29T14:08:41.739Z,99200.37
2019-01-29T14:11:45.249Z,99193.89
2019-01-29T14:14:48.727Z,99195.38
2019-01-29T14:17:52.252Z,99193.72
2019-01-29T14:20:56.039Z,99198.04
2019-01-29T14:23:59.643Z,99200.70
2019-01-29T14:27:03.180Z,99189.23
2019-01-29T14:30:09.464Z,99191.38
2019-01-29T14:33:13.037Z,99192.72
2019-01-29T14:36:17.536Z,99195.74
2019-01-29T14:39:38.171Z,99193.75
2019-01-29T14:42:41.752Z,99194.08
2019-01-29T14:45:45.257Z,99195.78
2019-01-29T14:48:49.774Z,99196.11
2019-01-29T14:51:53.267Z,99200.29
2019-01-29T14:54:56.870Z,99195.48
2019-01-29T14:58:01.324Z,99184.45
2019-01-29T15:01:05.841Z,99179.50
2019-01-29T15:04:09.378Z,99186.48
2019-01-29T15:07:12.850Z,99183.48
2019-01-29T15:10:17.177Z,99186.48
2019-01-29T15:13:20.649Z,99181.80
2019-01-29T15:16:43.221Z,99185.79
2019-01-29T15:19:46.732Z,99188.12
2019-01-29T15:22:50.315Z,99192.11
2019-01-29T15:25:53.901Z,99185.75
2019-01-29T15:28:57.405Z,99184.94
2019-01-29T15:32:00.917Z,99184.09
2019-01-29T15:35:05.135Z,99179.40
2019-01-29T15:38:08.546Z,99182.52
2019-01-29T15:41:12.035Z,99183.91
2019-01-29T15:44:15.524Z,99185.02
2019-01-29T15:47:19.016Z,99184.06
2019-01-29T15:50:22.814Z,99180.88
2019-01-29T15:53:26.228Z,99182.73
2019-01-29T15:56:30.784Z,99181.25
2019-01-29T15:59:42.611Z,99181.09
2019-01-29T16:02:39.597Z,99178.43
2019-01-29T16:05:43.123Z,99181.77
2019-01-29T16:08:48.637Z,99180.77
2019-01-29T16:11:52.165Z,99180.09
2019-01-29T16:14:55.666Z,99192.08
2019-01-29T16:17:59.154Z,99190.05
2019-01-29T16:21:02.659Z,99186.72
2019-01-29T16:24:06.147Z,99186.32
2019-01-29T16:27:09.652Z,99191.64
2019-01-29T16:30:18.733Z,99187.28
2019-01-29T16:33:22.378Z,99195.75
2019-01-29T16:36:25.904Z,99190.21
2019-01-29T16:39:29.395Z,99193.17
2019-01-29T16:42:32.910Z,99194.31
2019-01-29T16:45:36.813Z,99190.95
2019-01-29T16:48:41.461Z,99193.28
2019-01-29T16:51:45.049Z,99193.58
2019-01-29T16:54:48.541Z,99187.73
2019-01-29T16:57:52.064Z,99189.70
2019-01-29T17:00:55.723Z,99185.52
2019-01-29T17:03:59.262Z,99187.98
2019-01-29T17:07:02.760Z,99194.50
2019-01-29T17:10:06.971Z,99190.02
2019-01-29T17:13:10.574Z,99186.09
2019-01-29T17:16:15.097Z,99179.77
2019-01-29T17:19:20.253Z,99183.39
2019-01-29T17:22:23.750Z,99186.42
2019-01-29T17:25:27.241Z,99183.39
2019-01-29T17:28:30.734Z,99182.77
2019-01-29T17:31:34.264Z,99184.13
2019-01-29T17:34:37.738Z,99186.79
2019-01-29T17:37:41.245Z,99188.12
2019-01-29T17:40:45.796Z,99179.80
2019-01-29T17:43:49.272Z,99189.45
2019-01-29T17:46:52.666Z,99188.45
2019-01-29T17:49:56.280Z,99188.60
2019-01-29T17:52:59.758Z,99188.45
2019-01-29T17:56:03.178Z,99178.10
2019-01-29T17:59:06.738Z,99179.80
2019-01-29T18:02:10.133Z,99177.13
2019-01-29T18:05:13.552Z,99174.77
2019-01-29T18:08:16.988Z,99175.62
2019-01-29T18:11:20.482Z,99172.25
2019-01-29T18:14:23.893Z,99169.41
2019-01-29T18:17:29.433Z,99164.42
2019-01-29T18:20:32.937Z,99169.05
2019-01-29T18:23:36.427Z,99166.05
2019-01-29T18:26:39.931Z,99161.57
2019-01-29T18:29:43.424Z,99166.53
2019-01-29T18:32:47.070Z,99168.38
2019-01-29T18:35:50.654Z,99161.20
2019-01-29T18:38:54.070Z,99165.86
2019-01-29T18:41:57.662Z,99167.34
2019-01-29T18:45:01.167Z,99171.01
2019-01-29T18:48:04.642Z,99169.31
2019-01-29T18:51:08.144Z,99159.32
2019-01-29T18:54:11.649Z,99164.98
2019-01-29T18:57:15.210Z,99160.32
2019-01-29T19:00:20.496Z,99155.00
2019-01-29T19:03:23.968Z,99152.45
2019-01-29T19:06:27.505Z,99155.59
2019-01-29T19:09:30.999Z,99152.60
2019-01-29T19:12:36.602Z,99154.89
2019-01-29T19:15:40.049Z,99152.90
2019-01-29T19:18:43.657Z,99149.88
2019-01-29T19:21:47.087Z,99146.87
2019-01-29T19:24:50.522Z,99146.39
2019-01-29T19:27:54.067Z,99142.22
2019-01-29T19:30:57.491Z,99132.89
2019-01-29T19:34:01.172Z,99129.87
2019-01-29T19:37:04.768Z,99131.56
2019-01-29T19:40:08.973Z,99120.91
2019-01-29T19:43:13.711Z,99125.88
2019-01-29T19:46:17.307Z,99119.22
2019-01-29T19:49:20.819Z,99126.17
2019-01-29T19:52:26.770Z,99125.50
2019-01-29T19:55:29.653Z,99125.17
2019-01-29T19:58:33.108Z,99127.14
2019-01-29T20:01:36.659Z,99122.14
2019-01-29T20:04:42.204Z,99119.78
2019-01-29T20:07:45.716Z,99119.11
2019-01-29T20:10:49.223Z,99119.11
2019-01-29T20:13:52.749Z,99113.94
2019-01-29T20:16:56.244Z,99114.79
2019-01-29T20:19:59.725Z,99117.08
2019-01-29T20:23:08.061Z,99112.76
2019-01-29T20:26:08.558Z,99112.42
2019-01-29T20:29:13.081Z,99106.25
2019-01-29T20:32:17.603Z,99103.74
2019-01-29T20:35:21.124Z,99102.70
2019-01-29T20:38:24.605Z,99100.01
2019-01-29T20:41:28.143Z,99106.63
2019-01-29T20:44:31.607Z,99096.09
2019-01-29T20:47:35.128Z,99090.59
2019-01-29T20:50:39.692Z,99089.26
2019-01-29T20:53:43.107Z,99087.85
2019-01-29T20:56:46.540Z,99091.18
2019-01-29T20:59:50.044Z,99078.17
2019-01-29T21:02:53.640Z,99081.13
2019-01-29T21:05:57.157Z,99071.48
2019-01-29T21:09:00.659Z,99062.13
2019-01-29T21:12:04.270Z,99070.71
2019-01-29T21:15:10.052Z,99058.22
2019-01-29T21:18:13.527Z,99059.88
2019-01-29T21:21:17.016Z,99053.05
2019-01-29T21:24:20.544Z,99048.98
2019-01-29T21:27:24.064Z,99048.80
2019-01-29T21:30:38.838Z,99046.95
2019-01-29T21:33:42.276Z,99046.10
2019-01-29T21:36:45.869Z,99045.91
2019-01-29T21:39:49.433Z,99042.22
2019-01-29T21:42:52.915Z,99042.36
2019-01-29T21:45:58.574Z,99041.18
2019-01-29T21:49:02.036Z,99034.02
2019-01-29T21:52:05.456Z,99037.78
2019-01-29T21:55:10.250Z,99026.81
2019-01-29T21:58:13.685Z,99024.78
2019-01-29T22:01:17.148Z,99020.45
2019-01-29T22:04:20.711Z,99017.95
2019-01-29T22:07:24.153Z,99015.72
2019-01-29T22:10:27.669Z,99009.45
2019-01-29T22:13:31.196Z,99014.35
2019-01-29T22:16:34.664Z,99010.66
2019-01-29T22:19:38.184Z,99012.35
2019-01-29T22:22:41.669Z,99008.66
2019-01-29T22:25:45.228Z,99007.95
2019-01-29T22:28:49.709Z,99006.62
2019-01-29T22:31:53.208Z,99004.27
2019-01-29T22:34:56.715Z,98998.61
2019-01-29T22:38:00.131Z,98996.95
2019-01-29T22:41:03.568Z,98996.25
2019-01-29T22:44:07.020Z,98996.25
2019-01-29T22:47:10.500Z,98990.27
2019-01-29T22:50:16.664Z,98985.09
2019-01-29T22:53:20.165Z,98987.89
2019-01-29T22:56:23.674Z,98979.92
2019-01-29T22:59:33.322Z,98986.20
2019-01-29T23:02:34.568Z,98979.22
2019-01-29T23:05:38.058Z,98978.52
2019-01-29T23:08:41.592Z,98974.17
2019-01-29T23:11:45.080Z,98971.66
2019-01-29T23:14:48.573Z,98966.48
2019-01-29T23:17:53.115Z,98964.97
2019-01-29T23:20:56.937Z,98964.13
2019-01-29T23:24:00.501Z,98962.45
2019-01-29T23:27:04.019Z,98961.78
2019-01-29T23:30:11.116Z,98957.43
2019-01-29T23:33:14.596Z,98959.13
2019-01-29T23:36:18.179Z,98957.72
2019-01-29T23:39:22.625Z,98949.42
2019-01-29T23:42:26.060Z,98957.39
2019-01-29T23:45:29.521Z,98955.02
2019-01-29T23:48:33.253Z,98949.37
2019-01-29T23:51:36.729Z,98943.73
2019-01-29T23:54:40.114Z,98939.38
2019-01-29T23:57:44.544Z,98932.69
